createdAt,value
2022-11-10T00:00:11.262Z,1.00
2022-11-10T00:02:04.680Z,1.13
2022-11-10T00:03:59.111Z,0.98
2022-11-10T00:05:52.203Z,1.02
2022-11-10T00:07:46.675Z,1.05
2022-11-10T00:09:39.755Z,1.52
2022-11-10T00:11:33.310Z,1.20
2022-11-10T00:13:29.104Z,1.30
2022-11-10T00:15:39.662Z,1.02
2022-11-10T00:17:31.954Z,1.20
2022-11-10T00:19:25.018Z,0.88
2022-11-10T00:21:20.192Z,1.15
2022-11-10T00:23:14.582Z,1.00
2022-11-10T00:25:09.308Z,1.00
2022-11-10T00:27:02.515Z,0.90
2022-11-10T00:28:55.785Z,1.00
2022-11-10T00:30:48.919Z,1.50
2022-11-10T00:32:42.164Z,0.98
2022-11-10T00:34:35.505Z,1.38
2022-11-10T00:36:28.661Z,0.90
2022-11-10T00:38:23.041Z,1.00
2022-11-10T00:40:16.697Z,1.00
2022-11-10T00:42:10.090Z,1.15
2022-11-10T00:44:04.154Z,1.05
2022-11-10T00:45:57.657Z,0.95
2022-11-10T00:47:50.751Z,1.25
2022-11-10T00:49:43.806Z,1.00
2022-11-10T00:51:36.900Z,1.42
2022-11-10T00:53:31.348Z,1.50
2022-11-10T00:55:24.381Z,1.25
2022-11-10T00:57:17.486Z,1.25
2022-11-10T00:59:10.531Z,1.17
2022-11-10T01:01:05.538Z,1.50
2022-11-10T01:02:59.040Z,1.52
2022-11-10T01:04:52.143Z,1.42
2022-11-10T01:06:47.816Z,0.98
2022-11-10T01:08:43.621Z,1.20
2022-11-10T01:10:36.993Z,1.15
2022-11-10T01:12:31.045Z,1.15
2022-11-10T01:14:24.239Z,1.10
2022-11-10T01:16:20.264Z,0.90
2022-11-10T01:18:13.389Z,1.50
2022-11-10T01:20:08.580Z,1.05
2022-11-10T01:22:01.855Z,1.17
2022-11-10T01:23:57.397Z,1.10
2022-11-10T01:25:50.475Z,1.00
2022-11-10T01:27:43.755Z,1.70
2022-11-10T01:29:37.016Z,1.25
2022-11-10T01:31:30.084Z,1.23
2022-11-10T01:33:23.474Z,1.05
2022-11-10T01:35:17.095Z,1.23
2022-11-10T01:37:10.512Z,1.23
2022-11-10T01:39:05.052Z,1.00
2022-11-10T01:40:59.256Z,1.10
2022-11-10T01:42:55.019Z,0.90
2022-11-10T01:45:44.353Z,1.00
2022-11-10T01:47:38.090Z,1.15
2022-11-10T01:49:33.596Z,1.63
2022-11-10T01:51:33.456Z,1.48
2022-11-10T01:53:31.085Z,1.20
2022-11-10T01:55:26.903Z,1.00
2022-11-10T01:57:20.178Z,1.02
2022-11-10T01:59:19.578Z,1.20
2022-11-10T02:01:12.716Z,1.13
2022-11-10T02:03:14.656Z,1.48
2022-11-10T02:05:10.226Z,0.88
2022-11-10T02:07:03.623Z,1.50
2022-11-10T02:08:59.297Z,1.00
2022-11-10T02:10:53.871Z,1.15
2022-11-10T02:12:48.730Z,1.30
2022-11-10T02:14:42.675Z,1.00
2022-11-10T02:16:37.327Z,1.25
2022-11-10T02:18:30.719Z,1.33
2022-11-10T02:20:24.252Z,1.10
2022-11-10T02:22:18.760Z,1.40
2022-11-10T02:24:12.120Z,1.20
2022-11-10T02:26:07.830Z,1.13
2022-11-10T02:28:00.892Z,1.50
2022-11-10T02:29:54.325Z,1.25
2022-11-10T02:31:47.563Z,1.20
2022-11-10T02:33:40.674Z,1.77
2022-11-10T02:35:33.716Z,1.30
2022-11-10T02:37:28.227Z,1.23
2022-11-10T02:39:21.308Z,2.05
2022-11-10T02:41:14.666Z,1.85
2022-11-10T02:43:17.338Z,1.20
2022-11-10T02:45:11.219Z,1.20
2022-11-10T02:47:04.371Z,1.20
2022-11-10T02:48:57.742Z,1.20
2022-11-10T02:50:50.849Z,1.23
2022-11-10T02:52:45.264Z,1.13
2022-11-10T02:54:38.383Z,1.20
2022-11-10T02:56:31.467Z,1.67
2022-11-10T02:58:24.766Z,1.73
2022-11-10T03:00:19.064Z,1.35
2022-11-10T03:02:12.183Z,0.80
2022-11-10T03:04:07.018Z,1.40
2022-11-10T03:06:00.277Z,1.45
2022-11-10T03:07:56.445Z,1.40
2022-11-10T03:09:51.485Z,1.40
2022-11-10T03:11:44.650Z,1.38
2022-11-10T03:13:59.877Z,1.10
2022-11-10T03:15:51.232Z,1.20
2022-11-10T03:17:44.439Z,1.42
2022-11-10T03:19:37.488Z,1.20
2022-11-10T03:21:30.590Z,1.30
2022-11-10T03:23:25.180Z,1.15
2022-11-10T03:25:18.618Z,1.35
2022-11-10T03:27:11.643Z,0.98
2022-11-10T03:29:04.812Z,0.93
2022-11-10T03:30:58.010Z,1.60
2022-11-10T03:32:51.619Z,1.20
2022-11-10T03:34:44.739Z,1.73
2022-11-10T03:36:38.023Z,1.30
2022-11-10T03:38:32.599Z,1.30
2022-11-10T03:40:26.002Z,1.17
2022-11-10T03:42:19.115Z,1.33
2022-11-10T03:44:12.369Z,1.85
2022-11-10T03:46:05.526Z,1.13
2022-11-10T03:47:58.640Z,1.60
2022-11-10T03:49:51.845Z,1.50
2022-11-10T03:51:44.967Z,1.80
2022-11-10T03:53:39.660Z,1.52
2022-11-10T03:55:33.132Z,1.48
2022-11-10T03:57:26.313Z,1.30
2022-11-10T03:59:19.395Z,1.50
2022-11-10T04:01:12.505Z,1.85
2022-11-10T04:03:05.640Z,2.03
2022-11-10T04:05:16.596Z,2.08
2022-11-10T04:07:30.004Z,2.47
2022-11-10T04:09:24.648Z,2.05
2022-11-10T04:11:37.973Z,1.55
2022-11-10T04:13:48.712Z,2.15
2022-11-10T04:15:43.513Z,2.40
2022-11-10T04:17:36.581Z,2.10
2022-11-10T04:19:30.558Z,1.92
2022-11-10T04:21:23.620Z,2.08
2022-11-10T04:23:29.040Z,2.30
2022-11-10T04:25:23.419Z,1.88
2022-11-10T04:27:15.717Z,2.67
2022-11-10T04:29:11.056Z,2.03
2022-11-10T04:31:04.530Z,2.08
2022-11-10T04:32:57.789Z,1.58
2022-11-10T04:34:50.982Z,1.67
2022-11-10T04:36:46.631Z,2.00
2022-11-10T04:38:40.906Z,2.33
2022-11-10T04:40:35.372Z,2.00
2022-11-10T04:42:28.561Z,2.13
2022-11-10T04:44:21.886Z,2.00
2022-11-10T04:46:24.298Z,2.15
2022-11-10T04:48:17.445Z,2.00
2022-11-10T04:50:11.140Z,2.50
2022-11-10T04:52:04.400Z,2.30
2022-11-10T04:53:58.395Z,2.40
2022-11-10T04:55:54.639Z,2.10
2022-11-10T04:57:47.721Z,2.35
2022-11-10T04:59:40.798Z,2.45
2022-11-10T05:01:34.193Z,2.20
2022-11-10T05:03:27.490Z,1.98
2022-11-10T05:05:20.508Z,3.05
2022-11-10T05:07:13.693Z,2.50
2022-11-10T05:09:07.108Z,2.17
2022-11-10T05:11:01.762Z,1.98
2022-11-10T05:12:55.663Z,2.15
2022-11-10T05:14:48.925Z,2.45
2022-11-10T05:16:43.324Z,2.25
2022-11-10T05:18:36.867Z,2.30
2022-11-10T05:20:29.994Z,2.35
2022-11-10T05:22:23.055Z,2.10
2022-11-10T05:24:15.312Z,1.90
2022-11-10T05:26:12.632Z,1.85
2022-11-10T05:28:07.326Z,2.30
2022-11-10T05:30:00.603Z,2.22
2022-11-10T05:31:53.729Z,2.03
2022-11-10T05:33:46.788Z,1.90
2022-11-10T05:35:40.820Z,1.83
2022-11-10T05:37:34.099Z,2.40
2022-11-10T05:39:27.173Z,1.95
2022-11-10T05:41:21.639Z,2.53
2022-11-10T05:43:15.418Z,2.38
2022-11-10T05:45:10.063Z,1.88
2022-11-10T05:47:03.210Z,2.40
2022-11-10T05:48:56.459Z,2.00
2022-11-10T05:50:49.703Z,2.15
2022-11-10T05:52:50.021Z,2.22
2022-11-10T05:54:44.735Z,2.40
2022-11-10T05:56:39.220Z,2.20
2022-11-10T05:58:32.339Z,2.58
2022-11-10T06:00:28.649Z,2.40
2022-11-10T06:02:22.066Z,2.50
2022-11-10T06:04:15.174Z,2.13
2022-11-10T06:06:09.238Z,2.03
2022-11-10T06:08:04.017Z,2.42
2022-11-10T06:09:57.139Z,2.25
2022-11-10T06:11:51.586Z,2.60
2022-11-10T06:13:44.732Z,2.35
2022-11-10T06:15:38.003Z,2.10
2022-11-10T06:17:31.193Z,2.45
2022-11-10T06:19:24.298Z,2.53
2022-11-10T06:21:17.399Z,2.60
2022-11-10T06:23:12.990Z,2.20
2022-11-10T06:25:07.708Z,2.40
2022-11-10T06:27:02.315Z,2.30
2022-11-10T06:28:55.451Z,2.22
2022-11-10T06:30:49.132Z,2.85
2022-11-10T06:32:44.673Z,1.90
2022-11-10T06:34:37.724Z,2.80
2022-11-10T06:36:30.864Z,1.92
2022-11-10T06:38:24.296Z,2.85
2022-11-10T06:40:17.605Z,2.38
2022-11-10T06:42:12.456Z,2.25
2022-11-10T06:44:06.398Z,2.05
2022-11-10T06:46:00.259Z,2.30
2022-11-10T06:48:01.468Z,2.20
2022-11-10T06:49:54.756Z,2.05
2022-11-10T06:51:48.971Z,2.05
2022-11-10T06:53:43.077Z,2.30
2022-11-10T06:55:36.272Z,2.53
2022-11-10T06:57:30.724Z,1.77
2022-11-10T06:59:23.776Z,2.00
2022-11-10T07:01:22.106Z,1.80
2022-11-10T07:03:17.435Z,2.40
2022-11-10T07:05:10.744Z,3.03
2022-11-10T07:07:04.283Z,2.63
2022-11-10T07:08:57.457Z,2.45
2022-11-10T07:10:54.561Z,1.85
2022-11-10T07:12:49.034Z,2.22
2022-11-10T07:14:42.151Z,2.22
2022-11-10T07:16:36.254Z,2.15
2022-11-10T07:18:29.621Z,2.28
2022-11-10T07:20:23.012Z,1.70
2022-11-10T07:22:16.348Z,2.38
2022-11-10T07:24:10.476Z,2.00
2022-11-10T07:26:03.661Z,2.13
2022-11-10T07:28:00.311Z,2.10
2022-11-10T07:29:53.423Z,1.92
2022-11-10T07:31:46.532Z,1.67
2022-11-10T07:33:39.862Z,1.77
2022-11-10T07:35:34.885Z,2.45
2022-11-10T07:37:28.701Z,2.08
2022-11-10T07:39:21.747Z,2.85
2022-11-10T07:41:14.935Z,2.25
2022-11-10T07:43:10.778Z,2.17
2022-11-10T07:45:03.950Z,1.80
2022-11-10T07:46:57.205Z,2.35
2022-11-10T07:48:51.444Z,1.70
2022-11-10T07:50:44.678Z,2.17
2022-11-10T07:52:37.846Z,2.20
2022-11-10T07:54:31.061Z,2.30
2022-11-10T07:56:24.252Z,2.40
2022-11-10T07:58:19.714Z,2.20
2022-11-10T08:00:14.887Z,2.60
2022-11-10T08:02:10.675Z,2.47
2022-11-10T08:04:04.060Z,2.63
2022-11-10T08:05:57.532Z,2.50
2022-11-10T08:07:50.667Z,2.22
2022-11-10T08:09:44.330Z,2.38
2022-11-10T08:11:37.484Z,2.25
2022-11-10T08:13:31.967Z,2.40
2022-11-10T08:15:26.750Z,2.42
2022-11-10T08:17:19.896Z,2.45
2022-11-10T08:19:13.593Z,1.95
2022-11-10T08:21:07.302Z,2.40
2022-11-10T08:23:02.717Z,1.98
2022-11-10T08:24:56.094Z,2.17
2022-11-10T08:26:49.245Z,2.15
2022-11-10T08:28:44.125Z,2.40
2022-11-10T08:30:39.999Z,1.70
2022-11-10T08:32:33.224Z,2.28
2022-11-10T08:34:26.483Z,1.85
2022-11-10T08:36:20.074Z,1.80
2022-11-10T08:38:16.595Z,2.55
2022-11-10T08:40:11.504Z,2.03
2022-11-10T08:42:06.452Z,2.08
2022-11-10T08:44:01.009Z,2.22
2022-11-10T08:45:57.257Z,1.92
2022-11-10T08:48:00.152Z,2.15
2022-11-10T08:49:53.266Z,2.10
2022-11-10T08:51:46.551Z,1.70
2022-11-10T08:53:39.893Z,1.77
2022-11-10T08:55:33.136Z,1.25
2022-11-10T08:57:26.403Z,1.42
2022-11-10T08:59:20.914Z,1.60
2022-11-10T09:01:14.539Z,1.60
2022-11-10T09:03:11.942Z,1.73
2022-11-10T09:05:05.489Z,1.38
2022-11-10T09:06:59.358Z,1.90
2022-11-10T09:08:52.956Z,1.60
2022-11-10T09:10:50.102Z,1.17
2022-11-10T09:12:44.395Z,1.52
2022-11-10T09:14:39.086Z,1.35
2022-11-10T09:16:32.541Z,1.15
2022-11-10T09:18:25.892Z,1.40
2022-11-10T09:20:19.348Z,1.30
2022-11-10T09:22:12.463Z,1.60
2022-11-10T09:24:06.763Z,1.45
2022-11-10T09:25:59.871Z,1.50
2022-11-10T09:27:53.014Z,1.40
2022-11-10T09:29:47.546Z,1.90
2022-11-10T09:31:41.489Z,1.65
2022-11-10T09:33:34.606Z,1.33
2022-11-10T09:35:29.211Z,2.25
2022-11-10T09:37:22.504Z,1.63
2022-11-10T09:39:16.230Z,1.88
2022-11-10T09:41:13.821Z,1.55
2022-11-10T09:43:16.096Z,1.77
2022-11-10T09:45:23.633Z,1.35
2022-11-10T09:49:45.654Z,1.40
2022-11-10T09:51:48.169Z,1.67
2022-11-10T09:53:51.337Z,1.20
2022-11-10T09:55:50.209Z,1.52
2022-11-10T09:57:48.866Z,1.67
2022-11-10T09:59:44.639Z,1.10
2022-11-10T10:01:49.050Z,1.20
2022-11-10T10:03:49.915Z,1.15
2022-11-10T10:06:02.237Z,1.30
2022-11-10T10:08:03.036Z,1.88
2022-11-10T10:10:06.245Z,1.38
2022-11-10T10:12:20.051Z,1.63
2022-11-10T10:14:48.186Z,1.33
2022-11-10T10:16:52.269Z,1.20
2022-11-10T10:19:00.350Z,1.52
2022-11-10T10:21:18.438Z,1.42
2022-11-10T10:23:46.773Z,1.00
2022-11-10T10:25:42.551Z,1.40
2022-11-10T10:27:41.361Z,1.65
2022-11-10T10:29:41.774Z,1.30
2022-11-10T10:31:40.477Z,1.40
2022-11-10T10:33:34.937Z,1.35
2022-11-10T10:35:31.245Z,1.27
2022-11-10T10:37:28.920Z,2.00
2022-11-10T10:39:30.201Z,1.98
2022-11-10T10:41:27.288Z,1.33
2022-11-10T10:43:20.550Z,1.40
2022-11-10T10:45:20.756Z,1.40
2022-11-10T10:47:13.974Z,1.20
2022-11-10T10:49:33.733Z,1.15
2022-11-10T10:51:31.613Z,1.25
2022-11-10T10:53:26.154Z,1.33
2022-11-10T10:55:19.578Z,1.27
2022-11-10T10:57:24.918Z,1.00
2022-11-10T10:59:23.290Z,1.30
2022-11-10T11:01:30.597Z,1.77
2022-11-10T11:03:29.831Z,1.35
2022-11-10T11:05:24.657Z,1.10
2022-11-10T11:07:24.881Z,1.38
2022-11-10T11:09:23.451Z,0.93
2022-11-10T11:11:16.565Z,1.67
2022-11-10T11:13:21.826Z,1.23
2022-11-10T11:15:26.716Z,1.00
2022-11-10T11:17:22.679Z,1.35
2022-11-10T11:19:16.415Z,1.52
2022-11-10T11:21:26.478Z,1.40
2022-11-10T11:23:43.928Z,1.02
2022-11-10T11:25:43.367Z,0.93
2022-11-10T11:27:47.217Z,1.50
2022-11-10T11:30:09.169Z,0.98
2022-11-10T11:32:21.985Z,1.42
2022-11-10T11:34:25.048Z,1.00
2022-11-10T11:36:30.604Z,1.05
2022-11-10T11:38:33.088Z,1.42
2022-11-10T11:40:38.241Z,0.93
2022-11-10T11:42:49.212Z,1.20
2022-11-10T11:45:01.360Z,1.30
2022-11-10T11:47:06.865Z,1.63
2022-11-10T11:49:26.888Z,1.15
2022-11-10T11:51:29.293Z,1.20
2022-11-10T11:53:44.566Z,0.95
2022-11-10T11:56:00.457Z,1.05
2022-11-10T11:58:18.399Z,1.33
2022-11-10T12:00:16.406Z,1.55
2022-11-10T12:03:02.816Z,1.00
2022-11-10T12:05:13.737Z,1.30
2022-11-10T12:07:28.973Z,1.02
2022-11-10T12:09:34.869Z,0.85
2022-11-10T12:11:49.699Z,1.20
2022-11-10T12:13:58.746Z,0.98
2022-11-10T12:16:00.442Z,0.77
2022-11-10T12:18:07.855Z,1.15
2022-11-10T12:20:15.968Z,1.17
2022-11-10T12:22:25.053Z,1.50
2022-11-10T12:24:56.185Z,1.08
2022-11-10T12:26:58.179Z,1.35
2022-11-10T12:29:00.028Z,0.90
2022-11-10T12:31:02.103Z,1.20
2022-11-10T12:33:03.436Z,1.00
2022-11-10T12:35:04.234Z,1.20
2022-11-10T12:37:00.975Z,0.93
2022-11-10T12:39:04.280Z,1.48
2022-11-10T12:41:08.828Z,0.82
2022-11-10T12:43:05.952Z,0.98
2022-11-10T12:45:03.836Z,0.70
2022-11-10T12:47:03.256Z,0.70
2022-11-10T12:49:11.496Z,1.30
2022-11-10T12:51:11.677Z,1.10
2022-11-10T12:53:15.185Z,1.10
2022-11-10T12:55:14.796Z,0.98
2022-11-10T12:57:15.281Z,0.70
2022-11-10T12:59:33.029Z,0.70
2022-11-10T13:01:26.409Z,1.17
2022-11-10T13:03:32.505Z,0.63
2022-11-10T13:05:35.189Z,0.68
2022-11-10T13:07:28.483Z,1.02
2022-11-10T13:09:28.959Z,1.27
2022-11-10T13:11:28.779Z,0.90
2022-11-10T13:13:24.212Z,1.00
2022-11-10T13:15:47.500Z,0.63
2022-11-10T13:17:56.777Z,0.90
2022-11-10T13:22:11.085Z,0.70
2022-11-10T13:24:24.831Z,0.98
2022-11-10T13:26:52.571Z,0.70
2022-11-10T13:29:01.593Z,0.90
2022-11-10T13:30:54.910Z,0.70
2022-11-10T13:32:48.020Z,1.00
2022-11-10T13:34:42.122Z,0.80
2022-11-10T13:36:39.842Z,0.80
2022-11-10T13:38:39.780Z,0.90
2022-11-10T13:40:39.556Z,0.93
2022-11-10T13:42:34.073Z,0.80
2022-11-10T13:44:30.733Z,1.08
2022-11-10T13:46:36.062Z,0.85
2022-11-10T13:48:54.283Z,0.75
2022-11-10T13:50:55.239Z,0.70
2022-11-10T13:53:10.183Z,0.77
2022-11-10T13:55:19.974Z,1.23
2022-11-10T13:57:31.105Z,0.90
2022-11-10T13:59:29.477Z,0.60
2022-11-10T14:01:30.159Z,0.90
2022-11-10T14:03:57.692Z,0.98
2022-11-10T14:06:13.473Z,0.73
2022-11-10T14:08:14.193Z,0.85
2022-11-10T14:10:17.194Z,0.98
2022-11-10T14:12:26.707Z,0.70
2022-11-10T14:14:30.213Z,0.88
2022-11-10T14:18:24.901Z,0.75
2022-11-10T14:20:26.932Z,0.88
2022-11-10T14:22:29.013Z,0.55
2022-11-10T14:24:29.089Z,0.40
2022-11-10T14:26:30.011Z,0.80
2022-11-10T14:28:27.208Z,0.73
2022-11-10T14:30:25.800Z,0.88
2022-11-10T14:32:22.550Z,1.08
2022-11-10T14:34:18.458Z,1.30
2022-11-10T14:36:14.985Z,1.00
2022-11-10T14:38:20.974Z,0.88
2022-11-10T14:40:20.830Z,1.50
2022-11-10T14:42:21.560Z,1.63
2022-11-10T14:44:22.552Z,1.00
2022-11-10T14:46:16.964Z,0.73
2022-11-10T14:48:20.687Z,0.77
2022-11-10T14:50:22.081Z,3.45
2022-11-10T14:52:15.485Z,1.40
2022-11-10T14:54:25.429Z,1.00
2022-11-10T14:56:25.921Z,0.80
2022-11-10T15:00:28.369Z,1.08
2022-11-10T15:02:23.011Z,1.40
2022-11-10T15:04:17.171Z,1.02
2022-11-10T15:06:13.058Z,6.55
2022-11-10T15:08:07.505Z,22.45
2022-11-10T15:10:13.949Z,16.20
2022-11-10T15:12:21.105Z,17.65
2022-11-10T15:14:38.116Z,8.70
2022-11-10T15:16:34.078Z,11.52
2022-11-10T15:18:31.084Z,5.50
2022-11-10T15:20:30.295Z,9.30
2022-11-10T15:22:30.589Z,5.93
2022-11-10T15:24:26.990Z,27.35
2022-11-10T15:26:24.641Z,24.85
2022-11-10T15:28:30.284Z,13.55
2022-11-10T15:30:26.680Z,14.23
2022-11-10T15:32:23.891Z,53.83
2022-11-10T15:34:44.223Z,14.55
2022-11-10T15:36:40.357Z,11.38
2022-11-10T15:38:33.767Z,6.15
2022-11-10T15:40:36.052Z,26.40
2022-11-10T15:42:29.306Z,17.00
2022-11-10T15:44:26.205Z,6.60
2022-11-10T15:46:24.705Z,20.17
2022-11-10T15:48:19.659Z,4.20
2022-11-10T15:50:16.078Z,3.75
2022-11-10T15:52:19.996Z,2.30
2022-11-10T15:54:13.564Z,2.05
2022-11-10T15:56:09.092Z,0.90
2022-11-10T15:58:02.443Z,1.83
2022-11-10T15:59:55.832Z,4.22
2022-11-10T16:01:50.939Z,2.97
2022-11-10T16:03:44.791Z,3.53
2022-11-10T16:05:41.060Z,6.28
2022-11-10T16:07:34.202Z,7.95
2022-11-10T16:09:27.287Z,5.35
2022-11-10T16:11:22.878Z,24.65
2022-11-10T16:13:19.418Z,13.43
2022-11-10T16:15:21.263Z,6.50
2022-11-10T16:17:14.925Z,23.83
2022-11-10T16:19:10.442Z,10.07
2022-11-10T16:21:05.120Z,13.45
2022-11-10T16:22:58.366Z,5.53
2022-11-10T16:24:51.500Z,5.53
2022-11-10T16:26:44.713Z,3.67
2022-11-10T16:28:37.848Z,2.13
2022-11-10T16:30:31.314Z,4.50
2022-11-10T16:32:24.698Z,2.33
2022-11-10T16:34:17.915Z,1.70
2022-11-10T16:36:24.894Z,1.15
2022-11-10T16:38:23.050Z,0.80
2022-11-10T16:40:18.564Z,1.40
2022-11-10T16:42:12.858Z,1.83
2022-11-10T16:44:07.119Z,0.90
2022-11-10T16:46:05.656Z,0.95
2022-11-10T16:47:59.332Z,0.93
2022-11-10T16:49:52.612Z,0.90
2022-11-10T16:51:49.161Z,1.30
2022-11-10T16:53:43.262Z,0.73
2022-11-10T16:55:36.698Z,0.60
2022-11-10T16:57:30.030Z,0.95
2022-11-10T16:59:23.730Z,0.70
2022-11-10T17:01:21.762Z,0.93
2022-11-10T17:03:22.588Z,1.20
2022-11-10T17:05:16.740Z,1.42
2022-11-10T17:07:15.455Z,0.90
2022-11-10T17:09:17.334Z,0.90
2022-11-10T17:11:11.046Z,0.88
2022-11-10T17:13:04.579Z,0.60
2022-11-10T17:14:57.892Z,0.60
2022-11-10T17:16:51.209Z,0.68
2022-11-10T17:18:45.793Z,0.68
2022-11-10T17:20:43.306Z,0.65
2022-11-10T17:22:37.743Z,0.98
2022-11-10T17:24:31.102Z,1.20
2022-11-10T17:26:24.248Z,1.38
2022-11-10T17:28:20.252Z,0.90
2022-11-10T17:30:14.741Z,1.02
2022-11-10T17:32:07.929Z,1.10
2022-11-10T17:34:01.094Z,0.90
2022-11-10T17:35:55.112Z,1.08
2022-11-10T17:37:54.928Z,1.40
2022-11-10T17:39:48.091Z,1.35
2022-11-10T17:41:41.247Z,1.58
2022-11-10T17:43:34.367Z,2.00
2022-11-10T17:45:29.922Z,1.00
2022-11-10T17:47:22.967Z,1.60
2022-11-10T17:49:16.116Z,1.08
2022-11-10T17:51:14.896Z,1.45
2022-11-10T17:53:21.208Z,1.40
2022-11-10T17:55:20.661Z,1.70
2022-11-10T17:57:14.149Z,1.10
2022-11-10T17:59:07.295Z,1.40
2022-11-10T18:01:00.585Z,0.68
2022-11-10T18:02:55.658Z,1.10
2022-11-10T18:04:49.026Z,1.10
2022-11-10T18:06:42.276Z,1.02
2022-11-10T18:08:37.734Z,0.95
2022-11-10T18:10:31.205Z,1.23
2022-11-10T18:12:27.959Z,0.90
2022-11-10T18:14:21.291Z,0.98
2022-11-10T18:16:15.422Z,1.08
2022-11-10T18:18:13.136Z,1.10
2022-11-10T18:20:10.014Z,0.60
2022-11-10T18:22:03.180Z,0.70
2022-11-10T18:23:57.627Z,0.77
2022-11-10T18:25:51.096Z,1.30
2022-11-10T18:27:44.287Z,0.80
2022-11-10T18:29:37.416Z,0.93
2022-11-10T18:31:30.705Z,0.75
2022-11-10T18:33:24.243Z,0.95
2022-11-10T18:35:17.941Z,0.90
2022-11-10T18:37:11.065Z,0.68
2022-11-10T18:39:05.592Z,1.13
2022-11-10T18:41:25.443Z,0.90
2022-11-10T18:43:18.842Z,1.10
2022-11-10T18:45:12.866Z,0.90
2022-11-10T18:47:07.061Z,0.77
2022-11-10T18:49:00.372Z,1.05
2022-11-10T18:50:53.544Z,1.45
2022-11-10T18:52:47.560Z,1.27
2022-11-10T18:54:42.146Z,0.98
2022-11-10T18:56:35.635Z,1.00
2022-11-10T18:58:28.836Z,1.13
2022-11-10T19:00:22.346Z,1.30
2022-11-10T19:02:15.782Z,1.20
2022-11-10T19:04:09.300Z,1.25
2022-11-10T19:06:03.408Z,1.00
2022-11-10T19:07:56.682Z,1.50
2022-11-10T19:09:51.131Z,1.67
2022-11-10T19:11:44.801Z,1.00
2022-11-10T19:13:39.393Z,1.10
2022-11-10T19:15:32.579Z,1.95
2022-11-10T19:17:25.667Z,1.10
2022-11-10T19:19:18.760Z,1.02
2022-11-10T19:21:14.848Z,1.20
2022-11-10T19:23:08.097Z,1.65
2022-11-10T19:25:09.770Z,1.52
2022-11-10T19:27:03.083Z,1.30
2022-11-10T19:28:57.247Z,1.10
2022-11-10T19:30:50.319Z,1.20
2022-11-10T19:32:43.608Z,1.30
2022-11-10T19:34:36.685Z,1.20
2022-11-10T19:36:30.180Z,1.30
2022-11-10T19:38:23.344Z,1.40
2022-11-10T19:40:17.908Z,1.88
2022-11-10T19:42:11.412Z,1.35
2022-11-10T19:44:04.924Z,1.33
2022-11-10T19:46:01.784Z,1.33
2022-11-10T19:47:57.123Z,1.20
2022-11-10T19:49:50.388Z,1.33
2022-11-10T19:51:43.520Z,1.00
2022-11-10T19:53:36.897Z,1.38
2022-11-10T19:55:33.296Z,1.00
2022-11-10T19:57:27.911Z,1.65
2022-11-10T19:59:21.151Z,1.45
2022-11-10T20:01:16.111Z,1.27
2022-11-10T20:03:11.347Z,1.77
2022-11-10T20:05:15.847Z,1.67
2022-11-10T20:07:26.549Z,1.40
2022-11-10T20:09:22.798Z,1.55
2022-11-10T20:11:21.045Z,1.15
2022-11-10T20:13:17.031Z,1.20
2022-11-10T20:15:14.470Z,1.50
2022-11-10T20:17:07.772Z,1.48
2022-11-10T20:19:01.177Z,1.10
2022-11-10T20:20:54.333Z,1.35
2022-11-10T20:22:47.429Z,1.20
2022-11-10T20:24:47.068Z,1.30
2022-11-10T20:26:45.413Z,1.50
2022-11-10T20:28:39.746Z,1.35
2022-11-10T20:30:35.265Z,1.30
2022-11-10T20:32:28.663Z,1.45
2022-11-10T20:34:21.774Z,2.67
2022-11-10T20:36:20.869Z,2.00
2022-11-10T20:38:16.645Z,1.67
2022-11-10T20:40:37.725Z,2.58
2022-11-10T20:42:25.313Z,1.60
2022-11-10T20:44:18.443Z,1.80
2022-11-10T20:46:33.197Z,1.23
2022-11-10T20:48:31.891Z,1.48
2022-11-10T20:50:24.928Z,1.20
2022-11-10T20:52:18.450Z,1.20
2022-11-10T20:54:11.592Z,1.50
2022-11-10T20:56:05.684Z,1.63
2022-11-10T20:58:00.081Z,2.13
2022-11-10T20:59:53.235Z,1.40
2022-11-10T21:01:47.431Z,1.65
2022-11-10T21:03:41.393Z,1.35
2022-11-10T21:05:34.425Z,1.30
2022-11-10T21:07:27.575Z,1.95
2022-11-10T21:09:20.885Z,1.48
2022-11-10T21:11:34.184Z,1.33
2022-11-10T21:13:28.605Z,1.92
2022-11-10T21:15:22.528Z,1.33
2022-11-10T21:17:15.615Z,2.25
2022-11-10T21:19:09.012Z,1.48
2022-11-10T21:21:02.393Z,1.35
2022-11-10T21:23:02.110Z,1.70
2022-11-10T21:24:56.529Z,1.27
2022-11-10T21:26:49.800Z,1.38
2022-11-10T21:28:44.395Z,1.20
2022-11-10T21:30:37.681Z,1.30
2022-11-10T21:32:31.029Z,1.85
2022-11-10T21:34:24.157Z,1.52
2022-11-10T21:36:17.541Z,1.38
2022-11-10T21:38:12.904Z,1.40
2022-11-10T21:40:07.673Z,1.52
2022-11-10T21:42:00.793Z,1.80
2022-11-10T21:43:55.463Z,1.30
2022-11-10T21:45:48.546Z,1.40
2022-11-10T21:47:41.785Z,1.67
2022-11-10T21:49:34.883Z,1.63
2022-11-10T21:51:27.968Z,1.65
2022-11-10T21:53:21.574Z,1.23
2022-11-10T21:55:14.999Z,1.70
2022-11-10T21:57:08.101Z,1.40
2022-11-10T21:59:02.899Z,1.42
2022-11-10T22:01:02.608Z,1.90
2022-11-10T22:02:59.319Z,1.88
2022-11-10T22:04:52.607Z,1.52
2022-11-10T22:07:03.498Z,1.33
2022-11-10T22:08:56.632Z,1.77
2022-11-10T22:11:07.552Z,1.42
2022-11-10T22:13:18.071Z,1.65
2022-11-10T22:15:33.539Z,1.33
2022-11-10T22:17:44.014Z,0.90
2022-11-10T22:19:38.126Z,1.33
2022-11-10T22:21:31.385Z,1.40
2022-11-10T22:23:44.765Z,1.33
2022-11-10T22:25:38.784Z,1.33
2022-11-10T22:27:31.854Z,1.20
2022-11-10T22:29:31.222Z,1.02
2022-11-10T22:31:26.396Z,1.75
2022-11-10T22:33:28.375Z,1.48
2022-11-10T22:35:35.378Z,1.40
2022-11-10T22:37:32.795Z,2.15
2022-11-10T22:39:46.232Z,1.65
2022-11-10T22:41:56.845Z,1.42
2022-11-10T22:44:04.791Z,1.20
2022-11-10T22:45:58.026Z,1.20
2022-11-10T22:48:12.434Z,1.35
2022-11-10T22:50:06.933Z,1.30
2022-11-10T22:52:00.028Z,1.50
2022-11-10T22:53:53.316Z,1.10
2022-11-10T22:55:46.557Z,1.88
2022-11-10T22:57:39.648Z,1.10
2022-11-10T22:59:32.687Z,1.05
2022-11-10T23:01:26.218Z,1.08
2022-11-10T23:03:20.914Z,1.00
2022-11-10T23:05:14.506Z,1.20
2022-11-10T23:07:07.663Z,1.20
2022-11-10T23:09:01.284Z,1.50
2022-11-10T23:11:00.368Z,1.20
2022-11-10T23:12:55.181Z,1.10
2022-11-10T23:14:48.373Z,1.10
2022-11-10T23:16:41.763Z,0.98
2022-11-10T23:18:37.009Z,1.00
2022-11-10T23:20:30.234Z,1.35
2022-11-10T23:22:23.469Z,1.58
2022-11-10T23:24:20.780Z,1.40
2022-11-10T23:26:18.695Z,1.63
2022-11-10T23:28:12.037Z,1.10
2022-11-10T23:30:06.087Z,1.38
2022-11-10T23:31:59.338Z,1.10
2022-11-10T23:33:55.565Z,1.20
2022-11-10T23:35:49.056Z,1.20
2022-11-10T23:37:42.266Z,1.42
2022-11-10T23:39:35.325Z,1.40
2022-11-10T23:41:28.401Z,1.27
2022-11-10T23:43:21.929Z,1.10
2022-11-10T23:45:15.414Z,1.15
2022-11-10T23:47:08.526Z,1.15
2022-11-10T23:49:03.038Z,1.30
2022-11-10T23:50:56.440Z,0.98
2022-11-10T23:52:49.464Z,1.20
2022-11-10T23:54:42.788Z,1.10
2022-11-10T23:56:36.092Z,1.20
2022-11-10T23:58:29.904Z,1.25
